sensor_id;sensor_type;location;lat;lon;timestamp;pressure;altitude;pressure_sealevel;temperature;humidity
6132;BME280;3097;42.692;23.278;2022-10-22T00:02:11;95873.88;;;8.04;89.31
6132;BME280;3097;42.692;23.278;2022-10-22T00:04:41;95881.75;;;8.02;89.64
6132;BME280;3097;42.692;23.278;2022-10-22T00:07:06;95883.06;;;7.98;89.48
6132;BME280;3097;42.692;23.278;2022-10-22T00:09:32;95884.41;;;7.94;90.26
6132;BME280;3097;42.692;23.278;2022-10-22T00:11:57;95873.53;;;7.92;90.26
6132;BME280;3097;42.692;23.278;2022-10-22T00:14:23;95880.59;;;7.90;90.49
6132;BME280;3097;42.692;23.278;2022-10-22T00:16:48;95883.44;;;7.95;90.06
6132;BME280;3097;42.692;23.278;2022-10-22T00:19:13;95879.53;;;7.99;89.54
6132;BME280;3097;42.692;23.278;2022-10-22T00:21:39;95880.50;;;7.98;89.64
6132;BME280;3097;42.692;23.278;2022-10-22T00:24:05;95881.66;;;7.96;89.61
6132;BME280;3097;42.692;23.278;2022-10-22T00:26:30;95872.53;;;7.93;89.91
6132;BME280;3097;42.692;23.278;2022-10-22T00:28:55;95866.88;;;7.83;90.42
6132;BME280;3097;42.692;23.278;2022-10-22T00:31:21;95855.75;;;7.76;91.13
6132;BME280;3097;42.692;23.278;2022-10-22T00:33:47;95863.19;;;7.86;90.47
6132;BME280;3097;42.692;23.278;2022-10-22T00:36:13;95863.19;;;7.86;90.39
6132;BME280;3097;42.692;23.278;2022-10-22T00:38:39;95860.44;;;7.87;89.76
6132;BME280;3097;42.692;23.278;2022-10-22T00:41:05;95868.84;;;7.81;89.89
6132;BME280;3097;42.692;23.278;2022-10-22T00:43:30;95837.19;;;7.59;90.38
6132;BME280;3097;42.692;23.278;2022-10-22T00:45:56;95866.47;;;7.80;89.75
6132;BME280;3097;42.692;23.278;2022-10-22T00:50:57;95866.72;;;7.70;90.00
6132;BME280;3097;42.692;23.278;2022-10-22T00:53:48;95864.00;;;7.71;89.99
6132;BME280;3097;42.692;23.278;2022-10-22T00:56:15;95864.50;;;7.67;90.12
6132;BME280;3097;42.692;23.278;2022-10-22T00:58:44;95850.13;;;7.66;90.02
6132;BME280;3097;42.692;23.278;2022-10-22T01:01:17;95852.84;;;7.64;90.15
6132;BME280;3097;42.692;23.278;2022-10-22T01:03:46;95851.44;;;7.62;90.96
6132;BME280;3097;42.692;23.278;2022-10-22T01:06:26;95751.09;;;7.06;91.06
6132;BME280;3097;42.692;23.278;2022-10-22T01:25:48;95786.34;;;7.33;91.01
6132;BME280;3097;42.692;23.278;2022-10-22T01:30:41;95815.69;;;7.46;91.38
6132;BME280;3097;42.692;23.278;2022-10-22T01:33:09;95808.38;;;7.43;91.82
6132;BME280;3097;42.692;23.278;2022-10-22T01:35:42;95806.06;;;7.48;91.28
6132;BME280;3097;42.692;23.278;2022-10-22T01:38:15;95780.44;;;7.33;91.15
6132;BME280;3097;42.692;23.278;2022-10-22T01:40:41;95778.94;;;7.24;91.15
6132;BME280;3097;42.692;23.278;2022-10-22T01:43:09;95804.38;;;7.40;91.37
6132;BME280;3097;42.692;23.278;2022-10-22T01:51:02;95796.78;;;7.47;90.85
6132;BME280;3097;42.692;23.278;2022-10-22T01:59:16;95808.38;;;7.43;90.31
6132;BME280;3097;42.692;23.278;2022-10-22T02:04:56;95806.78;;;7.27;91.87
6132;BME280;3097;42.692;23.278;2022-10-22T02:07:26;95808.63;;;7.33;91.59
6132;BME280;3097;42.692;23.278;2022-10-22T02:09:53;95787.50;;;7.16;91.55
6132;BME280;3097;42.692;23.278;2022-10-22T02:12:22;95786.19;;;7.20;91.40
6132;BME280;3097;42.692;23.278;2022-10-22T02:14:49;95799.28;;;7.25;91.78
6132;BME280;3097;42.692;23.278;2022-10-22T02:17:19;95802.09;;;7.30;91.32
6132;BME280;3097;42.692;23.278;2022-10-22T02:19:56;95791.50;;;7.33;91.37
6132;BME280;3097;42.692;23.278;2022-10-22T02:22:24;95778.75;;;7.25;91.50
6132;BME280;3097;42.692;23.278;2022-10-22T02:24:50;95778.69;;;7.19;91.53
6132;BME280;3097;42.692;23.278;2022-10-22T02:27:44;95796.97;;;7.30;91.28
6132;BME280;3097;42.692;23.278;2022-10-22T02:30:17;95801.28;;;7.30;90.80
6132;BME280;3097;42.692;23.278;2022-10-22T02:35:25;95806.16;;;7.25;90.96
6132;BME280;3097;42.692;23.278;2022-10-22T02:37:52;95803.78;;;7.23;91.12
6132;BME280;3097;42.692;23.278;2022-10-22T02:40:19;95800.25;;;7.24;91.56
6132;BME280;3097;42.692;23.278;2022-10-22T02:42:46;95807.31;;;7.22;91.29
6132;BME280;3097;42.692;23.278;2022-10-22T02:45:12;95771.78;;;6.90;91.18
6132;BME280;3097;42.692;23.278;2022-10-22T02:47:38;95811.53;;;7.15;91.37
6132;BME280;3097;42.692;23.278;2022-10-22T02:50:04;95823.06;;;7.19;91.56
6132;BME280;3097;42.692;23.278;2022-10-22T02:52:30;95815.19;;;7.21;91.73
6132;BME280;3097;42.692;23.278;2022-10-22T02:54:55;95798.03;;;7.07;91.68
6132;BME280;3097;42.692;23.278;2022-10-22T02:57:21;95806.34;;;7.23;91.27
6132;BME280;3097;42.692;23.278;2022-10-22T02:59:46;95786.28;;;7.12;91.07
6132;BME280;3097;42.692;23.278;2022-10-22T03:02:11;95803.50;;;7.18;91.19
6132;BME280;3097;42.692;23.278;2022-10-22T03:04:37;95776.28;;;7.03;90.84
6132;BME280;3097;42.692;23.278;2022-10-22T03:07:02;95814.75;;;7.17;90.81
6132;BME280;3097;42.692;23.278;2022-10-22T03:09:28;95816.34;;;7.18;90.38
6132;BME280;3097;42.692;23.278;2022-10-22T03:11:53;95809.06;;;7.07;90.72
6132;BME280;3097;42.692;23.278;2022-10-22T03:14:19;95806.25;;;7.02;91.05
6132;BME280;3097;42.692;23.278;2022-10-22T03:16:44;95811.63;;;7.07;91.26
6132;BME280;3097;42.692;23.278;2022-10-22T03:19:10;95801.13;;;7.02;91.32
6132;BME280;3097;42.692;23.278;2022-10-22T03:21:40;95803.94;;;7.07;91.46
6132;BME280;3097;42.692;23.278;2022-10-22T03:24:10;95808.63;;;7.04;91.88
6132;BME280;3097;42.692;23.278;2022-10-22T03:26:38;95773.38;;;6.91;91.94
6132;BME280;3097;42.692;23.278;2022-10-22T03:29:05;95802.81;;;7.10;91.61
6132;BME280;3097;42.692;23.278;2022-10-22T03:31:31;95796.16;;;7.15;91.33
6132;BME280;3097;42.692;23.278;2022-10-22T03:33:56;95800.31;;;7.16;91.20
6132;BME280;3097;42.692;23.278;2022-10-22T03:36:22;95793.19;;;7.12;91.41
6132;BME280;3097;42.692;23.278;2022-10-22T03:38:48;95787.00;;;7.06;91.88
6132;BME280;3097;42.692;23.278;2022-10-22T03:41:14;95786.28;;;7.12;91.08
6132;BME280;3097;42.692;23.278;2022-10-22T03:43:39;95769.38;;;7.03;91.26
6132;BME280;3097;42.692;23.278;2022-10-22T03:46:05;95782.56;;;7.00;91.34
6132;BME280;3097;42.692;23.278;2022-10-22T03:48:31;95788.66;;;6.99;91.38
6132;BME280;3097;42.692;23.278;2022-10-22T03:50:56;95799.91;;;6.98;91.85
6132;BME280;3097;42.692;23.278;2022-10-22T03:53:22;95779.56;;;6.82;91.65
6132;BME280;3097;42.692;23.278;2022-10-22T03:55:47;95799.34;;;6.88;93.47
6132;BME280;3097;42.692;23.278;2022-10-22T03:58:13;95801.81;;;6.96;93.13
6132;BME280;3097;42.692;23.278;2022-10-22T04:00:38;95801.13;;;7.02;92.88
6132;BME280;3097;42.692;23.278;2022-10-22T04:03:04;95764.97;;;6.82;92.36
6132;BME280;3097;42.692;23.278;2022-10-22T04:05:31;95792.72;;;6.93;93.38
6132;BME280;3097;42.692;23.278;2022-10-22T04:07:57;95786.44;;;6.96;93.32
6132;BME280;3097;42.692;23.278;2022-10-22T04:10:22;95790.88;;;7.02;93.30
6132;BME280;3097;42.692;23.278;2022-10-22T04:12:48;95771.69;;;6.98;93.41
6132;BME280;3097;42.692;23.278;2022-10-22T04:15:13;95792.00;;;7.14;93.56
6132;BME280;3097;42.692;23.278;2022-10-22T04:17:39;95778.84;;;7.17;93.25
6132;BME280;3097;42.692;23.278;2022-10-22T04:20:05;95774.16;;;7.21;93.54
6132;BME280;3097;42.692;23.278;2022-10-22T04:22:34;95776.81;;;7.27;93.17
6132;BME280;3097;42.692;23.278;2022-10-22T04:25:01;95766.72;;;7.26;92.94
6132;BME280;3097;42.692;23.278;2022-10-22T04:27:33;95784.41;;;7.35;92.91
6132;BME280;3097;42.692;23.278;2022-10-22T04:29:59;95777.25;;;7.31;93.38
6132;BME280;3097;42.692;23.278;2022-10-22T04:32:25;95758.97;;;7.19;93.43
6132;BME280;3097;42.692;23.278;2022-10-22T04:34:51;95759.22;;;7.24;92.77
6132;BME280;3097;42.692;23.278;2022-10-22T04:37:17;95790.75;;;7.39;93.24
6132;BME280;3097;42.692;23.278;2022-10-22T04:39:42;95786.88;;;7.44;93.00
6132;BME280;3097;42.692;23.278;2022-10-22T04:42:07;95779.63;;;7.32;93.57
6132;BME280;3097;42.692;23.278;2022-10-22T04:44:33;95781.75;;;7.44;93.70
6132;BME280;3097;42.692;23.278;2022-10-22T04:46:59;95783.50;;;7.58;93.06
6132;BME280;3097;42.692;23.278;2022-10-22T04:49:24;95781.19;;;7.63;92.98
6132;BME280;3097;42.692;23.278;2022-10-22T04:51:50;95778.53;;;7.56;93.71
6132;BME280;3097;42.692;23.278;2022-10-22T04:54:15;95799.50;;;7.60;93.82
6132;BME280;3097;42.692;23.278;2022-10-22T04:56:41;95795.84;;;7.69;93.67
6132;BME280;3097;42.692;23.278;2022-10-22T04:59:07;95808.34;;;7.72;93.24
6132;BME280;3097;42.692;23.278;2022-10-22T05:01:38;95787.06;;;7.78;92.87
6132;BME280;3097;42.692;23.278;2022-10-22T05:04:05;95775.94;;;7.71;92.90
6132;BME280;3097;42.692;23.278;2022-10-22T05:06:32;95806.25;;;7.82;93.13
6132;BME280;3097;42.692;23.278;2022-10-22T05:09:01;95821.56;;;7.90;93.03
6132;BME280;3097;42.692;23.278;2022-10-22T05:11:29;95821.56;;;7.90;92.88
6132;BME280;3097;42.692;23.278;2022-10-22T05:13:56;95822.00;;;7.94;92.82
6132;BME280;3097;42.692;23.278;2022-10-22T05:16:22;95823.69;;;7.87;93.12
6132;BME280;3097;42.692;23.278;2022-10-22T05:18:48;95822.72;;;7.88;93.58
6132;BME280;3097;42.692;23.278;2022-10-22T05:21:16;95817.41;;;7.89;93.68
6132;BME280;3097;42.692;23.278;2022-10-22T05:23:43;95768.41;;;7.69;93.25
6132;BME280;3097;42.692;23.278;2022-10-22T05:26:11;95779.13;;;7.73;93.07
6132;BME280;3097;42.692;23.278;2022-10-22T05:28:37;95817.78;;;8.07;92.82
6132;BME280;3097;42.692;23.278;2022-10-22T05:31:03;95819.56;;;8.07;92.56
6132;BME280;3097;42.692;23.278;2022-10-22T05:33:31;95823.44;;;8.18;92.13
6132;BME280;3097;42.692;23.278;2022-10-22T05:35:57;95821.47;;;8.20;92.05
6132;BME280;3097;42.692;23.278;2022-10-22T05:38:23;95802.03;;;8.10;92.28
6132;BME280;3097;42.692;23.278;2022-10-22T05:41:01;95823.91;;;8.28;92.04
6132;BME280;3097;42.692;23.278;2022-10-22T05:43:27;95820.66;;;8.34;92.08
6132;BME280;3097;42.692;23.278;2022-10-22T05:45:53;95811.44;;;8.25;92.13
6132;BME280;3097;42.692;23.278;2022-10-22T05:48:19;95819.75;;;8.41;91.43
6132;BME280;3097;42.692;23.278;2022-10-22T05:50:44;95824.09;;;8.41;91.28
6132;BME280;3097;42.692;23.278;2022-10-22T05:53:18;95823.09;;;8.42;91.33
6132;BME280;3097;42.692;23.278;2022-10-22T05:55:43;95825.06;;;8.40;91.28
6132;BME280;3097;42.692;23.278;2022-10-22T05:58:13;95810.19;;;8.35;91.33
6132;BME280;3097;42.692;23.278;2022-10-22T06:00:38;95792.84;;;8.23;91.30
6132;BME280;3097;42.692;23.278;2022-10-22T06:03:04;95801.00;;;8.26;91.95
6132;BME280;3097;42.692;23.278;2022-10-22T06:05:30;95798.22;;;8.28;91.83
6132;BME280;3097;42.692;23.278;2022-10-22T06:07:59;95827.38;;;8.56;92.06
6132;BME280;3097;42.692;23.278;2022-10-22T06:10:25;95822.47;;;8.61;92.25
6132;BME280;3097;42.692;23.278;2022-10-22T06:12:50;95819.66;;;8.77;92.02
6132;BME280;3097;42.692;23.278;2022-10-22T06:15:17;95824.13;;;8.97;91.40
6132;BME280;3097;42.692;23.278;2022-10-22T06:17:44;95829.78;;;9.13;91.42
6132;BME280;3097;42.692;23.278;2022-10-22T06:20:10;95804.06;;;9.13;91.13
6132;BME280;3097;42.692;23.278;2022-10-22T06:22:35;95815.50;;;9.45;89.20
6132;BME280;3097;42.692;23.278;2022-10-22T06:25:01;95831.22;;;9.63;88.35
6132;BME280;3097;42.692;23.278;2022-10-22T06:27:26;95821.97;;;9.76;87.38
6132;BME280;3097;42.692;23.278;2022-10-22T06:29:52;95822.19;;;9.81;86.49
6132;BME280;3097;42.692;23.278;2022-10-22T06:32:17;95832.13;;;9.90;86.47
6132;BME280;3097;42.692;23.278;2022-10-22T06:34:42;95837.91;;;9.99;86.31
6132;BME280;3097;42.692;23.278;2022-10-22T06:37:08;95801.81;;;9.86;85.68
6132;BME280;3097;42.692;23.278;2022-10-22T06:39:34;95832.19;;;10.10;85.34
6132;BME280;3097;42.692;23.278;2022-10-22T06:41:59;95827.09;;;10.23;85.50
6132;BME280;3097;42.692;23.278;2022-10-22T06:44:25;95818.78;;;10.28;84.78
6132;BME280;3097;42.692;23.278;2022-10-22T06:46:51;95829.53;;;10.44;84.91
6132;BME280;3097;42.692;23.278;2022-10-22T06:49:17;95834.69;;;10.64;85.11
6132;BME280;3097;42.692;23.278;2022-10-22T06:51:43;95832.34;;;10.82;84.33
6132;BME280;3097;42.692;23.278;2022-10-22T06:54:09;95836.28;;;10.98;82.99
6132;BME280;3097;42.692;23.278;2022-10-22T06:56:35;95841.03;;;11.14;82.30
6132;BME280;3097;42.692;23.278;2022-10-22T06:59:00;95834.84;;;11.29;81.68
6132;BME280;3097;42.692;23.278;2022-10-22T07:01:31;95836.91;;;11.84;80.40
6132;BME280;3097;42.692;23.278;2022-10-22T07:03:57;95844.66;;;13.35;73.66
6132;BME280;3097;42.692;23.278;2022-10-22T07:06:24;95834.66;;;15.29;67.31
6132;BME280;3097;42.692;23.278;2022-10-22T07:08:50;95824.50;;;17.10;60.68
6132;BME280;3097;42.692;23.278;2022-10-22T07:11:24;95820.09;;;18.36;55.22
6132;BME280;3097;42.692;23.278;2022-10-22T07:13:50;95814.59;;;19.33;52.41
6132;BME280;3097;42.692;23.278;2022-10-22T07:16:17;95808.16;;;20.03;50.80
6132;BME280;3097;42.692;23.278;2022-10-22T07:18:43;95815.13;;;20.85;49.28
6132;BME280;3097;42.692;23.278;2022-10-22T07:21:10;95814.78;;;21.52;47.18
6132;BME280;3097;42.692;23.278;2022-10-22T07:23:36;95811.81;;;21.84;45.91
6132;BME280;3097;42.692;23.278;2022-10-22T07:26:03;95800.94;;;22.11;45.31
6132;BME280;3097;42.692;23.278;2022-10-22T07:28:32;95806.31;;;22.35;44.52
6132;BME280;3097;42.692;23.278;2022-10-22T07:30:58;95803.78;;;22.25;42.97
6132;BME280;3097;42.692;23.278;2022-10-22T07:33:25;95800.94;;;22.16;43.85
6132;BME280;3097;42.692;23.278;2022-10-22T07:35:57;95804.44;;;21.96;43.94
6132;BME280;3097;42.692;23.278;2022-10-22T07:38:23;95802.19;;;21.65;45.34
6132;BME280;3097;42.692;23.278;2022-10-22T07:40:48;95801.25;;;21.05;44.48
6132;BME280;3097;42.692;23.278;2022-10-22T07:43:14;95805.69;;;20.48;47.25
6132;BME280;3097;42.692;23.278;2022-10-22T07:45:39;95794.91;;;20.35;48.66
6132;BME280;3097;42.692;23.278;2022-10-22T07:48:05;95791.72;;;20.33;49.16
6132;BME280;3097;42.692;23.278;2022-10-22T07:50:31;95796.66;;;20.09;47.60
6132;BME280;3097;42.692;23.278;2022-10-22T07:52:56;95768.59;;;19.84;48.11
6132;BME280;3097;42.692;23.278;2022-10-22T07:55:22;95773.97;;;19.57;49.23
6132;BME280;3097;42.692;23.278;2022-10-22T07:57:47;95796.97;;;19.55;49.76
6132;BME280;3097;42.692;23.278;2022-10-22T08:00:13;95790.19;;;19.54;51.81
6132;BME280;3097;42.692;23.278;2022-10-22T08:02:38;95801.16;;;19.56;49.09
6132;BME280;3097;42.692;23.278;2022-10-22T08:05:04;95799.16;;;19.68;49.44
6132;BME280;3097;42.692;23.278;2022-10-22T08:07:30;95777.13;;;19.64;49.35
6132;BME280;3097;42.692;23.278;2022-10-22T08:09:55;95755.31;;;19.44;49.11
6132;BME280;3097;42.692;23.278;2022-10-22T08:12:21;95773.44;;;19.55;49.43
6132;BME280;3097;42.692;23.278;2022-10-22T08:14:46;95769.66;;;19.36;50.59
6132;BME280;3097;42.692;23.278;2022-10-22T08:17:12;95775.94;;;19.35;48.84
6132;BME280;3097;42.692;23.278;2022-10-22T08:19:37;95777.56;;;19.46;49.80
6132;BME280;3097;42.692;23.278;2022-10-22T08:22:03;95775.66;;;18.89;48.72
6132;BME280;3097;42.692;23.278;2022-10-22T08:24:29;95768.25;;;18.49;50.85
6132;BME280;3097;42.692;23.278;2022-10-22T08:26:54;95767.53;;;18.54;51.55
6132;BME280;3097;42.692;23.278;2022-10-22T08:29:24;95762.44;;;18.69;50.85
6132;BME280;3097;42.692;23.278;2022-10-22T08:31:51;95765.31;;;18.41;51.35
6132;BME280;3097;42.692;23.278;2022-10-22T08:34:18;95769.97;;;18.34;52.34
6132;BME280;3097;42.692;23.278;2022-10-22T08:36:43;95750.84;;;18.28;51.94
6132;BME280;3097;42.692;23.278;2022-10-22T08:39:09;95761.47;;;18.22;52.09
6132;BME280;3097;42.692;23.278;2022-10-22T08:42:07;95767.72;;;18.21;52.49
6132;BME280;3097;42.692;23.278;2022-10-22T08:47:20;95746.03;;;17.88;52.49
6132;BME280;3097;42.692;23.278;2022-10-22T08:49:52;95742.03;;;17.59;53.80
6132;BME280;3097;42.692;23.278;2022-10-22T08:52:19;95765.97;;;17.77;53.13
6132;BME280;3097;42.692;23.278;2022-10-22T08:54:53;95767.25;;;17.75;52.71
6132;BME280;3097;42.692;23.278;2022-10-22T08:57:32;95773.34;;;17.81;53.69
6132;BME280;3097;42.692;23.278;2022-10-22T09:00:19;95747.25;;;17.81;53.72
6132;BME280;3097;42.692;23.278;2022-10-22T09:05:32;95766.09;;;17.44;53.49
6132;BME280;3097;42.692;23.278;2022-10-22T09:07:59;95750.41;;;17.22;56.02
6132;BME280;3097;42.692;23.278;2022-10-22T09:10:28;95744.19;;;17.23;55.38
6132;BME280;3097;42.692;23.278;2022-10-22T09:12:56;95740.06;;;17.27;54.34
6132;BME280;3097;42.692;23.278;2022-10-22T09:15:21;95754.50;;;17.35;55.79
6132;BME280;3097;42.692;23.278;2022-10-22T09:20:33;95739.72;;;17.40;54.32
6132;BME280;3097;42.692;23.278;2022-10-22T09:26:15;95722.34;;;17.29;54.70
6132;BME280;3097;42.692;23.278;2022-10-22T09:28:41;95739.19;;;17.22;55.94
6132;BME280;3097;42.692;23.278;2022-10-22T09:31:13;95712.63;;;17.20;55.03
6132;BME280;3097;42.692;23.278;2022-10-22T09:33:40;95742.59;;;17.22;54.59
6132;BME280;3097;42.692;23.278;2022-10-22T09:36:06;95742.28;;;16.97;55.85
6132;BME280;3097;42.692;23.278;2022-10-22T09:38:43;95738.50;;;16.88;55.99
6132;BME280;3097;42.692;23.278;2022-10-22T09:41:09;95731.53;;;16.77;57.43
6132;BME280;3097;42.692;23.278;2022-10-22T09:43:35;95723.66;;;16.88;57.00
6132;BME280;3097;42.692;23.278;2022-10-22T09:46:03;95713.84;;;16.95;55.91
6132;BME280;3097;42.692;23.278;2022-10-22T09:48:38;95714.38;;;16.76;56.79
6132;BME280;3097;42.692;23.278;2022-10-22T09:51:18;95702.13;;;16.76;57.07
6132;BME280;3097;42.692;23.278;2022-10-22T09:54:00;95687.75;;;16.57;57.08
6132;BME280;3097;42.692;23.278;2022-10-22T09:56:35;95716.66;;;16.72;58.12
6132;BME280;3097;42.692;23.278;2022-10-22T09:59:01;95700.22;;;16.72;56.65
6132;BME280;3097;42.692;23.278;2022-10-22T10:01:32;95709.16;;;16.76;56.43
6132;BME280;3097;42.692;23.278;2022-10-22T10:04:03;95707.81;;;16.73;57.40
6132;BME280;3097;42.692;23.278;2022-10-22T10:06:32;95691.63;;;16.54;56.98
6132;BME280;3097;42.692;23.278;2022-10-22T10:08:57;95669.69;;;16.17;57.98
6132;BME280;3097;42.692;23.278;2022-10-22T10:11:33;95696.28;;;16.19;58.11
6132;BME280;3097;42.692;23.278;2022-10-22T10:14:09;95693.91;;;16.17;58.92
6132;BME280;3097;42.692;23.278;2022-10-22T10:16:48;95692.44;;;16.38;58.24
6132;BME280;3097;42.692;23.278;2022-10-22T10:22:36;95676.31;;;16.41;58.03
6132;BME280;3097;42.692;23.278;2022-10-22T10:27:56;95682.91;;;16.60;57.55
6132;BME280;3097;42.692;23.278;2022-10-22T10:30:25;95675.53;;;16.57;58.51
6132;BME280;3097;42.692;23.278;2022-10-22T10:33:25;95678.69;;;16.76;57.18
6132;BME280;3097;42.692;23.278;2022-10-22T10:36:09;95663.50;;;16.68;57.96
6132;BME280;3097;42.692;23.278;2022-10-22T10:49:23;95625.56;;;16.77;57.93
6132;BME280;3097;42.692;23.278;2022-10-22T10:56:55;95616.91;;;17.15;56.90
6132;BME280;3097;42.692;23.278;2022-10-22T11:05:19;95589.91;;;16.99;56.99
6132;BME280;3097;42.692;23.278;2022-10-22T11:07:59;95601.28;;;17.15;57.33
6132;BME280;3097;42.692;23.278;2022-10-22T11:12:59;95591.44;;;17.22;57.73
6132;BME280;3097;42.692;23.278;2022-10-22T11:15:35;95583.94;;;17.26;56.74
6132;BME280;3097;42.692;23.278;2022-10-22T11:20:49;95550.28;;;17.19;56.40
6132;BME280;3097;42.692;23.278;2022-10-22T11:23:23;95571.72;;;17.26;57.41
6132;BME280;3097;42.692;23.278;2022-10-22T11:25:49;95572.19;;;17.23;57.96
6132;BME280;3097;42.692;23.278;2022-10-22T11:28:40;95567.31;;;17.32;59.16
6132;BME280;3097;42.692;23.278;2022-10-22T11:31:12;95567.66;;;17.40;58.21
6132;BME280;3097;42.692;23.278;2022-10-22T11:33:53;95550.25;;;17.46;56.37
6132;BME280;3097;42.692;23.278;2022-10-22T11:36:22;95545.88;;;17.52;56.25
6132;BME280;3097;42.692;23.278;2022-10-22T11:38:49;95544.56;;;17.49;56.21
6132;BME280;3097;42.692;23.278;2022-10-22T11:41:18;95518.50;;;17.22;56.52
6132;BME280;3097;42.692;23.278;2022-10-22T11:49:01;95537.38;;;17.34;56.07
6132;BME280;3097;42.692;23.278;2022-10-22T11:51:37;95529.22;;;17.26;56.76
6132;BME280;3097;42.692;23.278;2022-10-22T11:54:43;95537.53;;;17.50;56.93
6132;BME280;3097;42.692;23.278;2022-10-22T11:59:55;95538.84;;;17.79;55.88
6132;BME280;3097;42.692;23.278;2022-10-22T12:05:29;95534.72;;;17.88;55.51
6132;BME280;3097;42.692;23.278;2022-10-22T12:08:11;95532.38;;;17.87;55.21
6132;BME280;3097;42.692;23.278;2022-10-22T12:11:34;95521.13;;;17.81;56.52
6132;BME280;3097;42.692;23.278;2022-10-22T12:16:39;95511.19;;;17.83;55.71
6132;BME280;3097;42.692;23.278;2022-10-22T12:19:25;95486.13;;;17.77;55.96
6132;BME280;3097;42.692;23.278;2022-10-22T12:22:39;95475.22;;;17.85;55.25
6132;BME280;3097;42.692;23.278;2022-10-22T12:24:42;95505.38;;;18.13;54.71
6132;BME280;3097;42.692;23.278;2022-10-22T12:27:26;95500.78;;;18.25;55.24
6132;BME280;3097;42.692;23.278;2022-10-22T12:29:58;95504.50;;;18.44;54.22
6132;BME280;3097;42.692;23.278;2022-10-22T12:32:35;95492.28;;;18.55;53.55
6132;BME280;3097;42.692;23.278;2022-10-22T12:35:07;95497.03;;;18.58;53.92
6132;BME280;3097;42.692;23.278;2022-10-22T12:37:35;95494.44;;;18.63;52.94
6132;BME280;3097;42.692;23.278;2022-10-22T12:42:57;95486.56;;;18.58;53.87
6132;BME280;3097;42.692;23.278;2022-10-22T12:45:26;95487.59;;;18.57;53.09
6132;BME280;3097;42.692;23.278;2022-10-22T12:47:59;95482.88;;;18.49;53.55
6132;BME280;3097;42.692;23.278;2022-10-22T12:50:39;95481.84;;;18.55;52.50
6132;BME280;3097;42.692;23.278;2022-10-22T12:53:09;95471.94;;;18.57;54.25
6132;BME280;3097;42.692;23.278;2022-10-22T12:55:37;95477.00;;;18.84;52.24
6132;BME280;3097;42.692;23.278;2022-10-22T12:58:05;95471.81;;;18.99;51.10
6132;BME280;3097;42.692;23.278;2022-10-22T13:00:32;95472.84;;;18.98;51.89
6132;BME280;3097;42.692;23.278;2022-10-22T13:03:03;95463.47;;;19.07;51.55
6132;BME280;3097;42.692;23.278;2022-10-22T13:05:33;95468.41;;;18.99;53.33
6132;BME280;3097;42.692;23.278;2022-10-22T13:08:09;95471.03;;;18.93;53.60
6132;BME280;3097;42.692;23.278;2022-10-22T13:10:37;95467.91;;;19.12;52.51
6132;BME280;3097;42.692;23.278;2022-10-22T13:13:03;95461.06;;;18.90;52.55
6132;BME280;3097;42.692;23.278;2022-10-22T13:20:30;95455.88;;;19.01;51.65
6132;BME280;3097;42.692;23.278;2022-10-22T13:23:03;95441.47;;;18.88;54.21
6132;BME280;3097;42.692;23.278;2022-10-22T13:30:36;95448.84;;;19.16;51.81
6132;BME280;3097;42.692;23.278;2022-10-22T13:33:22;95440.72;;;19.13;51.94
6132;BME280;3097;42.692;23.278;2022-10-22T13:35:50;95442.28;;;19.04;52.23
6132;BME280;3097;42.692;23.278;2022-10-22T13:38:22;95446.97;;;19.12;51.59
6132;BME280;3097;42.692;23.278;2022-10-22T13:40:48;95448.56;;;19.13;51.17
6132;BME280;3097;42.692;23.278;2022-10-22T13:43:14;95449.84;;;19.10;51.45
6132;BME280;3097;42.692;23.278;2022-10-22T13:45:40;95440.97;;;19.11;51.21
6132;BME280;3097;42.692;23.278;2022-10-22T13:48:12;95452.19;;;18.91;51.37
6132;BME280;3097;42.692;23.278;2022-10-22T13:50:39;95457.91;;;18.88;51.15
6132;BME280;3097;42.692;23.278;2022-10-22T13:53:05;95449.81;;;18.70;51.96
6132;BME280;3097;42.692;23.278;2022-10-22T13:55:32;95450.84;;;18.74;51.88
6132;BME280;3097;42.692;23.278;2022-10-22T13:58:08;95446.94;;;18.81;51.74
6132;BME280;3097;42.692;23.278;2022-10-22T14:00:36;95452.66;;;18.68;52.06
6132;BME280;3097;42.692;23.278;2022-10-22T14:03:02;95451.09;;;18.62;52.38
6132;BME280;3097;42.692;23.278;2022-10-22T14:05:28;95441.94;;;18.60;52.82
6132;BME280;3097;42.692;23.278;2022-10-22T14:08:01;95447.44;;;18.63;53.14
6132;BME280;3097;42.692;23.278;2022-10-22T14:10:27;95449.31;;;18.83;51.67
6132;BME280;3097;42.692;23.278;2022-10-22T14:12:52;95437.78;;;18.74;52.08
6132;BME280;3097;42.692;23.278;2022-10-22T14:15:20;95443.56;;;18.86;52.00
6132;BME280;3097;42.692;23.278;2022-10-22T14:17:53;95438.59;;;18.89;51.85
6132;BME280;3097;42.692;23.278;2022-10-22T14:20:22;95437.81;;;18.79;52.03
6132;BME280;3097;42.692;23.278;2022-10-22T14:22:49;95432.59;;;18.79;52.36
6132;BME280;3097;42.692;23.278;2022-10-22T14:25:16;95426.06;;;18.86;51.56
6132;BME280;3097;42.692;23.278;2022-10-22T14:27:42;95429.72;;;18.90;51.65
6132;BME280;3097;42.692;23.278;2022-10-22T14:30:12;95429.72;;;18.85;51.98
6132;BME280;3097;42.692;23.278;2022-10-22T14:32:38;95428.66;;;18.76;52.39
6132;BME280;3097;42.692;23.278;2022-10-22T14:35:04;95405.13;;;18.61;52.91
6132;BME280;3097;42.692;23.278;2022-10-22T14:37:30;95416.09;;;18.68;51.78
6132;BME280;3097;42.692;23.278;2022-10-22T14:39:55;95429.16;;;18.73;52.08
6132;BME280;3097;42.692;23.278;2022-10-22T14:42:26;95418.47;;;18.70;52.54
6132;BME280;3097;42.692;23.278;2022-10-22T14:44:52;95424.75;;;18.84;51.89
6132;BME280;3097;42.692;23.278;2022-10-22T14:47:18;95387.34;;;18.58;52.01
6132;BME280;3097;42.692;23.278;2022-10-22T14:49:43;95430.75;;;18.84;51.84
6132;BME280;3097;42.692;23.278;2022-10-22T14:52:09;95426.28;;;18.75;52.38
6132;BME280;3097;42.692;23.278;2022-10-22T14:54:35;95428.13;;;18.69;52.39
6132;BME280;3097;42.692;23.278;2022-10-22T14:57:06;95432.56;;;18.69;54.89
6132;BME280;3097;42.692;23.278;2022-10-22T14:59:32;95429.69;;;18.70;55.62
6132;BME280;3097;42.692;23.278;2022-10-22T15:01:58;95429.41;;;18.62;54.07
6132;BME280;3097;42.692;23.278;2022-10-22T15:04:23;95424.69;;;18.59;54.33
6132;BME280;3097;42.692;23.278;2022-10-22T15:06:51;95424.91;;;18.52;54.36
6132;BME280;3097;42.692;23.278;2022-10-22T15:09:21;95422.03;;;18.48;54.11
6132;BME280;3097;42.692;23.278;2022-10-22T15:11:47;95431.94;;;18.46;54.44
6132;BME280;3097;42.692;23.278;2022-10-22T15:14:12;95432.44;;;18.38;55.32